Time;durP1;ratioP1;P1;durP2;ratioP2;P2;SDS_P1;SDS_P2;PMS_P1;PMS_P2;Temp;Humidity;BMP_temperature;BMP_pressure;BME280_temperature;BME280_humidity;BME280_pressure;Samples;Min_cycle;Max_cycle;Signal;HPM_P1;HPM_P2
2023/07/27 00:02:10;;;;;;;7.80;4.03;;;;;;;;;;5112965;28;20495;-58
2023/07/27 00:04:35;;;;;;;9.63;4.03;;;;;;;;;;5108816;28;20023;-58
2023/07/27 00:07:00;;;;;;;6.53;3.92;;;;;;;;;;5109964;28;20035;-58
2023/07/27 00:09:26;;;;;;;7.72;4.20;;;;;;;;;;5112176;28;20073;-58
2023/07/27 00:11:51;;;;;;;9.88;4.00;;;;;;;;;;5109000;28;20019;-57
2023/07/27 00:14:17;;;;;;;6.32;4.18;;;;;;;;;;5111744;28;20389;-59
2023/07/27 00:16:42;;;;;;;6.97;4.22;;;;;;;;;;5110135;28;20030;-59
2023/07/27 00:19:08;;;;;;;7.32;4.10;;;;;;;;;;5109807;28;20072;-58
2023/07/27 00:21:33;;;;;;;6.70;4.40;;;;;;;;;;5109715;28;20349;-57
2023/07/27 00:23:58;;;;;;;5.75;3.85;;;;;;;;;;5110856;28;20043;-58
2023/07/27 00:26:24;;;;;;;8.10;4.40;;;;;;;;;;5110800;28;20080;-58
2023/07/27 00:28:49;;;;;;;8.93;4.53;;;;;;;;;;5109348;28;20040;-59
2023/07/27 00:31:15;;;;;;;8.57;4.20;;;;;;;;;;5106953;28;20294;-58
2023/07/27 00:33:40;;;;;;;7.43;4.15;;;;;;;;;;5111071;28;20077;-58
2023/07/27 00:36:06;;;;;;;7.22;4.80;;;;;;;;;;5109897;28;20063;-58
2023/07/27 00:38:31;;;;;;;6.75;4.30;;;;;;;;;;5110546;28;20041;-58
2023/07/27 00:40:56;;;;;;;6.75;4.10;;;;;;;;;;5109740;28;20061;-58
2023/07/27 00:43:22;;;;;;;7.07;4.25;;;;;;;;;;5111717;28;20038;-58
2023/07/27 00:45:49;;;;;;;7.75;4.30;;;;;;;;;;5108744;28;20468;-59
2023/07/27 00:48:15;;;;;;;7.45;4.20;;;;;;;;;;5110506;28;20040;-57
2023/07/27 00:50:40;;;;;;;6.65;4.40;;;;;;;;;;5111220;28;20042;-58
2023/07/27 00:53:08;;;;;;;7.78;4.40;;;;;;;;;;5109384;28;20031;-58
2023/07/27 00:55:35;;;;;;;6.90;3.95;;;;;;;;;;5110818;28;20562;-59
2023/07/27 00:58:01;;;;;;;6.18;3.92;;;;;;;;;;5107500;28;20088;-58
2023/07/27 01:00:27;;;;;;;6.38;4.00;;;;;;;;;;5109815;28;20391;-57
2023/07/27 01:02:53;;;;;;;6.93;4.25;;;;;;;;;;5108154;28;20035;-58
2023/07/27 01:05:19;;;;;;;7.22;4.18;;;;;;;;;;5108891;28;20036;-58
2023/07/27 01:07:45;;;;;;;9.07;4.07;;;;;;;;;;5110686;28;20356;-59
2023/07/27 01:10:10;;;;;;;6.72;3.90;;;;;;;;;;5111092;28;20085;-58
2023/07/27 01:12:49;;;;;;;6.55;3.88;;;;;;;;;;5109894;28;20444;-58
2023/07/27 01:15:17;;;;;;;6.68;3.97;;;;;;;;;;5111335;28;20476;-58
2023/07/27 01:18:03;;;;;;;6.82;3.80;;;;;;;;;;5110037;28;20107;-58
2023/07/27 01:20:50;;;;;;;7.72;4.10;;;;;;;;;;5114335;28;20028;-58
2023/07/27 01:24:06;;;;;;;6.38;3.67;;;;;;;;;;5113157;28;20028;-60
2023/07/27 01:26:52;;;;;;;7.07;3.83;;;;;;;;;;5114937;28;20035;-58
2023/07/27 01:29:44;;;;;;;7.40;3.75;;;;;;;;;;5113484;28;20426;-58
2023/07/27 01:32:12;;;;;;;7.32;3.85;;;;;;;;;;5072315;28;20067;-58
2023/07/27 01:34:42;;;;;;;6.22;3.63;;;;;;;;;;5114340;28;20066;-58
2023/07/27 01:37:10;;;;;;;6.35;3.58;;;;;;;;;;5113990;28;20264;-59
2023/07/27 01:39:41;;;;;;;5.82;3.60;;;;;;;;;;5113523;28;20408;-59
2023/07/27 01:42:08;;;;;;;;;;;;;;;;;;5113116;28;20136;-57
2023/07/27 01:44:36;;;;;;;5.78;3.63;;;;;;;;;;5113669;28;19911;-59
2023/07/27 01:47:03;;;;;;;5.43;3.30;;;;;;;;;;5112658;28;20027;-59
2023/07/27 01:49:30;;;;;;;5.43;3.60;;;;;;;;;;5113270;28;20077;-58
2023/07/27 01:51:58;;;;;;;7.03;3.30;;;;;;;;;;5113241;28;20043;-58
2023/07/27 01:54:24;;;;;;;10.63;3.90;;;;;;;;;;5113811;28;20132;-58
2023/07/27 01:56:50;;;;;;;5.95;3.53;;;;;;;;;;5112805;28;20027;-59
2023/07/27 01:59:17;;;;;;;6.20;3.53;;;;;;;;;;5114285;28;20030;-57
2023/07/27 02:01:43;;;;;;;6.97;3.20;;;;;;;;;;5112161;28;20027;-56
2023/07/27 02:04:08;;;;;;;6.85;3.50;;;;;;;;;;5112299;28;20275;-58
2023/07/27 02:06:34;;;;;;;6.57;3.50;;;;;;;;;;5113320;28;20028;-59
2023/07/27 02:08:59;;;;;;;6.50;3.30;;;;;;;;;;5110379;27;20035;-59
2023/07/27 02:11:26;;;;;;;5.20;2.95;;;;;;;;;;5114227;28;20422;-58
2023/07/27 02:13:59;;;;;;;5.93;3.10;;;;;;;;;;5111285;28;20028;-59
2023/07/27 02:16:51;;;;;;;7.22;3.38;;;;;;;;;;5095022;28;20038;-59
2023/07/27 02:19:19;;;;;;;6.75;3.13;;;;;;;;;;5108423;28;20046;-57
2023/07/27 02:21:46;;;;;;;5.63;3.13;;;;;;;;;;5111511;28;20066;-59
2023/07/27 02:24:13;;;;;;;6.80;3.00;;;;;;;;;;5113067;28;20031;-57
2023/07/27 02:26:38;;;;;;;5.10;2.95;;;;;;;;;;5115217;28;20089;-58
2023/07/27 02:29:03;;;;;;;6.25;3.13;;;;;;;;;;5109939;28;20055;-60
2023/07/27 02:31:31;;;;;;;7.97;3.00;;;;;;;;;;5112178;28;20422;-56
2023/07/27 02:33:56;;;;;;;5.57;3.00;;;;;;;;;;5112455;28;20031;-57
2023/07/27 02:36:22;;;;;;;5.68;2.92;;;;;;;;;;5113866;28;20032;-55
2023/07/27 02:38:47;;;;;;;6.10;3.10;;;;;;;;;;5113330;28;20023;-56
2023/07/27 02:41:12;;;;;;;7.20;3.50;;;;;;;;;;5112075;28;20392;-56
2023/07/27 02:43:38;;;;;;;7.22;3.30;;;;;;;;;;5108496;28;20104;-58
2023/07/27 02:46:05;;;;;;;5.55;3.20;;;;;;;;;;5105450;28;20035;-58
2023/07/27 02:48:30;;;;;;;7.18;3.67;;;;;;;;;;5107570;27;20058;-57
2023/07/27 02:50:56;;;;;;;7.43;3.80;;;;;;;;;;5092777;28;20525;-57
2023/07/27 02:53:22;;;;;;;6.07;3.55;;;;;;;;;;5100141;28;20032;-57
2023/07/27 02:56:04;;;;;;;8.13;3.90;;;;;;;;;;5112321;28;20379;-58
2023/07/27 02:58:29;;;;;;;9.30;3.63;;;;;;;;;;5112367;28;20056;-59
2023/07/27 03:00:57;;;;;;;7.15;4.05;;;;;;;;;;5110398;28;20035;-59
2023/07/27 03:03:23;;;;;;;9.32;4.40;;;;;;;;;;5110528;28;20036;-60
2023/07/27 03:06:04;;;;;;;8.60;4.60;;;;;;;;;;5113374;28;20027;-59
2023/07/27 03:08:30;;;;;;;8.50;4.57;;;;;;;;;;5105515;28;20047;-59
2023/07/27 03:11:03;;;;;;;6.80;4.47;;;;;;;;;;5104609;28;20337;-59
2023/07/27 03:13:29;;;;;;;9.38;5.18;;;;;;;;;;5113064;28;20499;-59
2023/07/27 03:15:59;;;;;;;8.00;4.95;;;;;;;;;;5098932;28;20066;-60
2023/07/27 03:18:25;;;;;;;9.82;5.55;;;;;;;;;;5106551;28;20048;-60
2023/07/27 03:20:51;;;;;;;9.07;5.43;;;;;;;;;;5111503;28;20062;-60
2023/07/27 03:23:16;;;;;;;10.68;5.70;;;;;;;;;;5113069;27;20030;-61
2023/07/27 03:25:41;;;;;;;10.63;5.88;;;;;;;;;;5112219;28;20036;-59
2023/07/27 03:28:11;;;;;;;10.80;5.68;;;;;;;;;;5109688;28;20031;-59
2023/07/27 03:30:41;;;;;;;9.45;5.38;;;;;;;;;;5111541;28;20506;-59
2023/07/27 03:33:06;;;;;;;10.48;5.97;;;;;;;;;;5108173;28;20043;-59
2023/07/27 03:35:33;;;;;;;13.32;5.70;;;;;;;;;;5112095;28;20028;-60
2023/07/27 03:37:58;;;;;;;9.77;5.45;;;;;;;;;;5111952;28;20081;-59
2023/07/27 03:40:24;;;;;;;10.25;5.72;;;;;;;;;;5111210;28;20031;-59
2023/07/27 03:42:49;;;;;;;10.40;5.65;;;;;;;;;;5111119;28;20368;-59
2023/07/27 03:45:15;;;;;;;9.77;5.45;;;;;;;;;;5109309;28;20031;-59
2023/07/27 03:47:44;;;;;;;10.00;5.68;;;;;;;;;;5107208;28;20039;-59
2023/07/27 03:50:13;;;;;;;10.63;5.82;;;;;;;;;;5110382;28;20031;-60
2023/07/27 03:52:38;;;;;;;11.30;5.88;;;;;;;;;;5111649;28;20031;-60
2023/07/27 03:55:04;;;;;;;9.88;5.68;;;;;;;;;;5110763;28;20031;-61
2023/07/27 03:57:30;;;;;;;10.63;6.18;;;;;;;;;;5112099;28;20051;-59
2023/07/27 03:59:58;;;;;;;10.80;5.85;;;;;;;;;;5109152;28;20104;-61
2023/07/27 04:02:25;;;;;;;14.15;6.43;;;;;;;;;;5111083;28;20114;-59
2023/07/27 04:04:51;;;;;;;11.23;6.65;;;;;;;;;;5113049;28;20054;-59
2023/07/27 04:07:17;;;;;;;13.13;6.57;;;;;;;;;;5099675;28;20028;-60
2023/07/27 04:09:43;;;;;;;13.15;6.15;;;;;;;;;;5094309;28;20032;-58
2023/07/27 04:12:08;;;;;;;9.40;6.15;;;;;;;;;;5111964;28;20035;-62
2023/07/27 04:14:34;;;;;;;12.25;7.15;;;;;;;;;;5112233;28;20065;-59
2023/07/27 04:16:59;;;;;;;11.35;6.68;;;;;;;;;;5112202;28;20043;-59
2023/07/27 04:19:25;;;;;;;10.90;6.75;;;;;;;;;;5110130;28;20027;-60
2023/07/27 04:21:50;;;;;;;12.38;7.32;;;;;;;;;;5111525;28;20087;-59
2023/07/27 04:24:15;;;;;;;12.00;7.03;;;;;;;;;;5111937;28;20518;-59
2023/07/27 04:26:43;;;;;;;13.73;7.28;;;;;;;;;;5110040;28;20039;-59
2023/07/27 04:29:09;;;;;;;10.85;6.90;;;;;;;;;;5107142;28;20066;-58
2023/07/27 04:31:34;;;;;;;13.65;7.40;;;;;;;;;;5104931;28;20451;-60
2023/07/27 04:33:59;;;;;;;13.90;7.65;;;;;;;;;;5110747;28;20089;-59
2023/07/27 04:36:25;;;;;;;16.83;7.60;;;;;;;;;;5102623;28;20024;-60
2023/07/27 04:38:50;;;;;;;11.88;7.28;;;;;;;;;;5102856;28;20403;-60
2023/07/27 04:41:16;;;;;;;12.80;7.88;;;;;;;;;;5111474;28;20104;-60
2023/07/27 04:43:41;;;;;;;16.48;8.05;;;;;;;;;;5111171;28;20031;-60
2023/07/27 04:46:06;;;;;;;14.50;7.50;;;;;;;;;;5111382;28;20020;-61
2023/07/27 04:48:32;;;;;;;14.05;7.72;;;;;;;;;;5109657;28;20460;-60
2023/07/27 04:50:57;;;;;;;14.57;7.72;;;;;;;;;;5111626;28;20031;-60
2023/07/27 04:53:23;;;;;;;15.15;8.50;;;;;;;;;;5111892;28;20028;-60
2023/07/27 04:55:48;;;;;;;12.32;7.75;;;;;;;;;;5110824;28;20035;-60
2023/07/27 04:58:13;;;;;;;13.57;8.25;;;;;;;;;;5110742;28;20393;-60
2023/07/27 05:00:39;;;;;;;14.43;8.43;;;;;;;;;;5110217;28;20151;-59
2023/07/27 05:03:04;;;;;;;11.73;7.55;;;;;;;;;;5111370;28;20114;-60
2023/07/27 05:05:30;;;;;;;13.82;7.47;;;;;;;;;;5110815;28;20400;-60
2023/07/27 05:07:55;;;;;;;15.25;8.05;;;;;;;;;;5109967;28;20110;-60
2023/07/27 05:10:22;;;;;;;12.35;7.68;;;;;;;;;;5111394;28;20472;-60
2023/07/27 05:12:48;;;;;;;13.88;8.07;;;;;;;;;;5110984;28;20039;-60
2023/07/27 05:15:13;;;;;;;14.35;8.48;;;;;;;;;;5099424;28;20032;-68
2023/07/27 05:17:38;;;;;;;15.07;8.52;;;;;;;;;;5088446;28;20030;-61
2023/07/27 05:20:04;;;;;;;13.52;8.40;;;;;;;;;;5111877;28;20067;-61
2023/07/27 05:22:30;;;;;;;13.68;7.95;;;;;;;;;;5108872;28;20039;-63
2023/07/27 05:24:55;;;;;;;15.88;8.02;;;;;;;;;;5111392;28;20039;-62
2023/07/27 05:27:20;;;;;;;14.95;7.85;;;;;;;;;;5110213;28;20027;-62
2023/07/27 05:29:46;;;;;;;10.60;7.22;;;;;;;;;;5111666;28;20481;-63
2023/07/27 05:32:11;;;;;;;12.25;7.40;;;;;;;;;;5090643;28;20032;-65
2023/07/27 05:34:36;;;;;;;15.90;7.82;;;;;;;;;;5104563;28;20078;-65
2023/07/27 05:37:02;;;;;;;13.77;7.72;;;;;;;;;;5109698;28;20415;-64
2023/07/27 05:39:31;;;;;;;16.60;8.00;;;;;;;;;;5111937;28;20077;-64
2023/07/27 05:41:56;;;;;;;14.63;7.97;;;;;;;;;;5094227;28;20032;-64
2023/07/27 05:44:21;;;;;;;14.95;8.65;;;;;;;;;;5090538;28;20024;-64
2023/07/27 05:46:47;;;;;;;14.57;7.75;;;;;;;;;;5091317;28;20370;-63
2023/07/27 05:49:12;;;;;;;12.40;8.10;;;;;;;;;;5089260;28;20028;-63
2023/07/27 05:51:38;;;;;;;12.57;7.35;;;;;;;;;;5095765;28;20381;-63
2023/07/27 05:54:03;;;;;;;13.57;7.55;;;;;;;;;;5110250;28;20089;-63
2023/07/27 05:56:28;;;;;;;14.25;6.75;;;;;;;;;;5111117;28;20081;-62
2023/07/27 05:58:54;;;;;;;12.57;7.22;;;;;;;;;;5109650;28;20038;-64
2023/07/27 06:01:20;;;;;;;13.20;7.43;;;;;;;;;;5108597;28;20050;-64
2023/07/27 06:03:46;;;;;;;12.88;7.05;;;;;;;;;;5111398;28;20035;-63
2023/07/27 06:06:11;;;;;;;13.13;7.38;;;;;;;;;;5100365;28;20365;-65
2023/07/27 06:08:37;;;;;;;10.98;6.68;;;;;;;;;;5096014;28;20114;-61
2023/07/27 06:11:09;;;;;;;12.15;7.13;;;;;;;;;;5113700;28;20460;-62
2023/07/27 06:13:34;;;;;;;11.52;6.82;;;;;;;;;;5113218;28;20034;-63
2023/07/27 06:16:00;;;;;;;15.77;7.65;;;;;;;;;;5094626;28;20028;-64
2023/07/27 06:18:26;;;;;;;12.13;7.22;;;;;;;;;;5094347;28;20042;-64
2023/07/27 06:20:52;;;;;;;12.90;6.65;;;;;;;;;;5100962;28;20451;-64
2023/07/27 06:23:18;;;;;;;9.35;6.22;;;;;;;;;;5094894;28;20040;-65
2023/07/27 06:25:44;;;;;;;11.45;6.30;;;;;;;;;;5096811;28;20036;-66
2023/07/27 06:28:10;;;;;;;10.35;6.22;;;;;;;;;;5109817;28;20032;-65
2023/07/27 06:30:37;;;;;;;9.40;5.40;;;;;;;;;;5111035;28;20127;-64
2023/07/27 06:33:03;;;;;;;11.00;5.82;;;;;;;;;;5094114;28;20088;-65
2023/07/27 06:35:28;;;;;;;9.02;5.90;;;;;;;;;;5094039;28;20020;-63
2023/07/27 06:37:53;;;;;;;9.68;5.70;;;;;;;;;;5098379;28;20031;-65
2023/07/27 06:40:19;;;;;;;10.35;5.43;;;;;;;;;;5113711;27;20036;-65
2023/07/27 06:42:44;;;;;;;10.05;5.55;;;;;;;;;;5113692;28;20031;-63
2023/07/27 06:45:10;;;;;;;9.85;5.07;;;;;;;;;;5112978;28;20028;-65
2023/07/27 06:47:36;;;;;;;9.85;5.32;;;;;;;;;;5113334;28;20489;-64
2023/07/27 06:50:02;;;;;;;10.80;4.85;;;;;;;;;;5112987;28;20028;-64
2023/07/27 06:52:28;;;;;;;8.10;5.30;;;;;;;;;;5113743;28;20089;-61
2023/07/27 06:54:54;;;;;;;10.10;4.85;;;;;;;;;;5114529;28;20023;-64
2023/07/27 06:57:20;;;;;;;9.65;5.22;;;;;;;;;;5108580;28;20498;-61
2023/07/27 06:59:45;;;;;;;8.23;4.57;;;;;;;;;;5113103;28;20106;-62
2023/07/27 07:02:11;;;;;;;7.55;4.68;;;;;;;;;;5111147;28;20063;-62
2023/07/27 07:04:36;;;;;;;10.15;5.47;;;;;;;;;;5113512;28;20059;-62
2023/07/27 07:07:01;;;;;;;7.35;5.20;;;;;;;;;;5113966;28;20045;-62
2023/07/27 07:09:32;;;;;;;9.00;5.03;;;;;;;;;;5113591;28;20413;-63
2023/07/27 07:11:58;;;;;;;8.40;4.97;;;;;;;;;;5113521;28;20032;-62
2023/07/27 07:14:24;;;;;;;8.02;4.75;;;;;;;;;;5112791;28;20019;-62
2023/07/27 07:16:49;;;;;;;8.40;5.03;;;;;;;;;;5110971;28;20104;-63
2023/07/27 07:19:14;;;;;;;10.32;4.93;;;;;;;;;;5110252;28;20036;-62
2023/07/27 07:21:40;;;;;;;8.18;4.70;;;;;;;;;;5111116;28;20408;-63
2023/07/27 07:24:05;;;;;;;8.15;4.57;;;;;;;;;;5113172;28;20106;-62
2023/07/27 07:26:31;;;;;;;9.10;4.20;;;;;;;;;;5113013;28;20039;-64
2023/07/27 07:28:56;;;;;;;6.32;4.15;;;;;;;;;;5110396;28;20083;-61
2023/07/27 07:31:21;;;;;;;6.45;3.90;;;;;;;;;;5111318;28;20528;-63
2023/07/27 07:33:47;;;;;;;7.38;4.22;;;;;;;;;;5112083;28;20072;-64
2023/07/27 07:36:12;;;;;;;7.65;3.83;;;;;;;;;;5111710;28;20422;-64
2023/07/27 07:38:37;;;;;;;5.30;3.60;;;;;;;;;;5111332;28;20039;-66
2023/07/27 07:41:03;;;;;;;6.10;3.85;;;;;;;;;;5109928;28;20032;-64
2023/07/27 07:43:34;;;;;;;6.15;3.83;;;;;;;;;;5091824;28;20030;-64
2023/07/27 07:46:00;;;;;;;5.65;3.50;;;;;;;;;;5112147;28;20042;-62
2023/07/27 07:48:25;;;;;;;7.47;3.78;;;;;;;;;;5111934;28;20028;-63
2023/07/27 07:50:51;;;;;;;5.97;3.88;;;;;;;;;;5112263;28;20032;-62
2023/07/27 07:53:17;;;;;;;5.53;3.80;;;;;;;;;;5091937;28;20024;-63
2023/07/27 07:55:42;;;;;;;5.00;3.75;;;;;;;;;;5092669;28;20027;-60
2023/07/27 07:58:08;;;;;;;6.43;3.90;;;;;;;;;;5090752;28;20039;-63
2023/07/27 08:00:33;;;;;;;5.85;3.85;;;;;;;;;;5110413;28;20486;-61
2023/07/27 08:02:59;;;;;;;5.82;3.83;;;;;;;;;;5112943;28;20080;-61
2023/07/27 08:05:24;;;;;;;6.38;3.97;;;;;;;;;;5109318;28;20502;-59
2023/07/27 08:07:50;;;;;;;5.72;3.70;;;;;;;;;;5111768;28;20032;-61
2023/07/27 08:10:15;;;;;;;6.72;3.92;;;;;;;;;;5111796;28;20023;-61
2023/07/27 08:12:41;;;;;;;6.22;3.88;;;;;;;;;;5104198;28;20036;-60
2023/07/27 08:15:07;;;;;;;5.28;3.78;;;;;;;;;;5109681;28;20027;-60
2023/07/27 08:17:32;;;;;;;6.35;4.00;;;;;;;;;;5097968;28;20094;-59
2023/07/27 08:19:58;;;;;;;6.00;4.00;;;;;;;;;;5092529;28;20058;-60
2023/07/27 08:22:26;;;;;;;5.38;3.80;;;;;;;;;;5091318;28;20032;-61
2023/07/27 08:24:52;;;;;;;5.47;3.58;;;;;;;;;;5095825;28;20024;-61
2023/07/27 08:27:18;;;;;;;4.90;3.35;;;;;;;;;;5098477;28;20035;-62
2023/07/27 08:29:47;;;;;;;4.53;3.75;;;;;;;;;;5090876;28;20476;-61
2023/07/27 08:32:12;;;;;;;6.22;4.05;;;;;;;;;;5091349;28;20032;-63
2023/07/27 08:34:38;;;;;;;6.05;4.10;;;;;;;;;;5091265;28;20031;-62
2023/07/27 08:37:03;;;;;;;5.30;4.00;;;;;;;;;;5091657;28;20051;-62
2023/07/27 08:39:29;;;;;;;5.03;3.90;;;;;;;;;;5091282;28;20032;-62
2023/07/27 08:41:55;;;;;;;4.72;3.50;;;;;;;;;;5108320;28;20047;-60
2023/07/27 08:44:20;;;;;;;4.07;3.30;;;;;;;;;;5093320;28;20044;-61
2023/07/27 08:46:46;;;;;;;4.90;3.35;;;;;;;;;;5100857;28;20085;-61
2023/07/27 08:49:15;;;;;;;6.72;3.00;;;;;;;;;;5111409;28;20123;-60
2023/07/27 08:51:43;;;;;;;5.90;3.08;;;;;;;;;;5108023;28;20051;-60
2023/07/27 08:54:09;;;;;;;4.80;3.10;;;;;;;;;;5092416;28;20024;-61
2023/07/27 08:56:34;;;;;;;4.63;3.20;;;;;;;;;;5107902;28;20088;-60
2023/07/27 08:59:00;;;;;;;5.38;3.28;;;;;;;;;;5110698;28;20062;-62
2023/07/27 09:01:26;;;;;;;3.63;2.85;;;;;;;;;;5108680;28;20059;-59
2023/07/27 09:03:51;;;;;;;4.40;3.22;;;;;;;;;;5092518;28;20060;-60
2023/07/27 09:06:38;;;;;;;5.30;3.15;;;;;;;;;;5108845;28;20031;-60
2023/07/27 09:09:28;;;;;;;5.63;3.30;;;;;;;;;;5103239;28;20468;-60
2023/07/27 09:11:54;;;;;;;5.53;3.50;;;;;;;;;;5111845;28;20092;-60
2023/07/27 09:14:20;;;;;;;4.10;2.40;;;;;;;;;;5111258;28;20425;-61
2023/07/27 09:16:47;;;;;;;4.00;3.28;;;;;;;;;;5106492;28;20103;-60
2023/07/27 09:19:13;;;;;;;4.20;3.38;;;;;;;;;;5090517;28;20047;-62
2023/07/27 09:21:48;;;;;;;5.55;3.40;;;;;;;;;;5091507;28;20384;-60
2023/07/27 09:24:16;;;;;;;2.97;2.55;;;;;;;;;;5090513;28;20449;-62
2023/07/27 09:26:47;;;;;;;4.88;2.83;;;;;;;;;;5101053;28;20036;-62
2023/07/27 09:29:17;;;;;;;3.55;2.70;;;;;;;;;;5107080;28;20047;-62
2023/07/27 09:31:50;;;;;;;4.22;2.95;;;;;;;;;;5108939;28;20107;-61
2023/07/27 09:34:17;;;;;;;3.97;2.60;;;;;;;;;;5105125;28;20119;-62
2023/07/27 09:36:42;;;;;;;3.35;2.42;;;;;;;;;;5108682;28;20428;-60
2023/07/27 09:39:09;;;;;;;3.45;2.72;;;;;;;;;;5107159;28;20061;-59
2023/07/27 09:41:35;;;;;;;3.15;2.50;;;;;;;;;;5112932;28;20028;-61
2023/07/27 09:44:02;;;;;;;4.22;2.75;;;;;;;;;;5115812;28;20134;-62
2023/07/27 09:46:29;;;;;;;2.55;2.33;;;;;;;;;;5114619;28;20036;-63
2023/07/27 09:48:58;;;;;;;3.08;2.40;;;;;;;;;;5115193;28;20028;-62
2023/07/27 09:51:26;;;;;;;4.88;2.30;;;;;;;;;;5113074;28;20095;-62
2023/07/27 09:53:51;;;;;;;2.75;1.88;;;;;;;;;;5096044;28;20408;-62
2023/07/27 09:56:17;;;;;;;3.17;2.05;;;;;;;;;;5094008;28;20028;-61
2023/07/27 09:58:46;;;;;;;2.72;2.00;;;;;;;;;;5094671;28;20418;-61
2023/07/27 10:01:11;;;;;;;2.28;2.08;;;;;;;;;;5109461;28;20507;-61
2023/07/27 10:03:36;;;;;;;2.60;1.92;;;;;;;;;;5112975;28;20040;-60
2023/07/27 10:06:03;;;;;;;3.00;2.20;;;;;;;;;;5115433;28;20038;-60
2023/07/27 10:08:29;;;;;;;2.85;2.17;;;;;;;;;;5098864;28;20032;-61
2023/07/27 10:10:57;;;;;;;3.55;2.25;;;;;;;;;;5093541;28;20028;-60
2023/07/27 10:13:23;;;;;;;2.35;2.00;;;;;;;;;;5093930;28;20086;-60
2023/07/27 10:15:50;;;;;;;2.95;2.10;;;;;;;;;;5104192;28;20035;-61
2023/07/27 10:18:22;;;;;;;2.30;1.85;;;;;;;;;;5101746;28;20063;-60
2023/07/27 10:20:48;;;;;;;3.42;2.00;;;;;;;;;;5108207;28;20023;-62
2023/07/27 10:23:28;;;;;;;3.33;1.98;;;;;;;;;;5102057;28;20055;-61
2023/07/27 10:25:56;;;;;;;2.47;1.98;;;;;;;;;;5114979;28;20092;-61
2023/07/27 10:28:43;;;;;;;2.78;2.05;;;;;;;;;;5113234;28;20035;-61
2023/07/27 10:31:22;;;;;;;2.05;1.77;;;;;;;;;;5112523;27;20047;-62
2023/07/27 10:34:03;;;;;;;3.30;2.10;;;;;;;;;;5097723;28;20070;-60
2023/07/27 10:36:47;;;;;;;4.57;2.28;;;;;;;;;;5093820;28;20024;-59
2023/07/27 10:39:18;;;;;;;3.42;2.30;;;;;;;;;;5094390;28;20061;-59
2023/07/27 10:42:01;;;;;;;;;;;;;;;;;;5104571;28;20533;-59
2023/07/27 10:44:48;;;;;;;2.20;2.00;;;;;;;;;;5111319;28;19957;-60
2023/07/27 10:47:15;;;;;;;2.40;2.10;;;;;;;;;;5107283;28;20476;-60
2023/07/27 10:49:47;;;;;;;3.22;2.30;;;;;;;;;;5092420;28;20461;-59
2023/07/27 10:52:24;;;;;;;2.67;2.20;;;;;;;;;;5093289;28;20032;-60
2023/07/27 10:54:51;;;;;;;3.40;2.13;;;;;;;;;;5109152;28;20108;-61
2023/07/27 10:57:18;;;;;;;3.70;2.00;;;;;;;;;;5110637;28;20035;-63
2023/07/27 10:59:49;;;;;;;2.60;2.20;;;;;;;;;;5112826;28;20031;-61
2023/07/27 11:02:16;;;;;;;2.40;2.00;;;;;;;;;;5114015;28;20088;-62
2023/07/27 11:04:41;;;;;;;5.60;2.28;;;;;;;;;;5107161;28;20036;-61
2023/07/27 11:07:10;;;;;;;2.30;1.90;;;;;;;;;;5112695;28;20023;-61
2023/07/27 11:09:36;;;;;;;3.38;2.10;;;;;;;;;;5112005;28;20039;-62
2023/07/27 11:12:02;;;;;;;2.47;1.85;;;;;;;;;;5114016;28;20032;-60
2023/07/27 11:14:28;;;;;;;2.85;2.00;;;;;;;;;;5112918;28;20038;-61
2023/07/27 11:16:53;;;;;;;2.22;1.77;;;;;;;;;;5113716;28;20512;-62
2023/07/27 11:19:21;;;;;;;2.03;1.73;;;;;;;;;;5097056;28;20543;-63
2023/07/27 11:21:49;;;;;;;3.72;1.70;;;;;;;;;;5113565;28;20031;-60
2023/07/27 11:24:16;;;;;;;2.70;1.77;;;;;;;;;;5114061;28;20116;-61
2023/07/27 11:26:41;;;;;;;1.98;1.77;;;;;;;;;;5113114;28;20031;-59
2023/07/27 11:29:09;;;;;;;2.33;1.92;;;;;;;;;;5113014;28;20048;-60
2023/07/27 11:31:35;;;;;;;4.53;3.20;;;;;;;;;;5112509;27;20107;-61
2023/07/27 11:34:02;;;;;;;3.35;2.85;;;;;;;;;;5102432;28;20099;-60
2023/07/27 11:36:29;;;;;;;5.18;3.92;;;;;;;;;;5111442;28;20061;-59
2023/07/27 11:38:55;;;;;;;6.25;4.07;;;;;;;;;;5100030;28;20067;-62
2023/07/27 11:41:22;;;;;;;5.97;4.65;;;;;;;;;;5106457;28;20070;-62
2023/07/27 11:43:51;;;;;;;6.88;5.70;;;;;;;;;;5111878;28;20031;-60
2023/07/27 11:46:17;;;;;;;7.05;5.63;;;;;;;;;;5111908;28;20027;-59
2023/07/27 11:48:43;;;;;;;8.60;5.95;;;;;;;;;;5109501;28;20098;-60
2023/07/27 11:51:09;;;;;;;8.35;6.57;;;;;;;;;;5112821;28;20149;-59
2023/07/27 11:53:34;;;;;;;6.75;5.25;;;;;;;;;;5111173;28;20031;-62
2023/07/27 11:55:59;;;;;;;5.40;4.50;;;;;;;;;;5109341;28;20020;-59
2023/07/27 11:58:26;;;;;;;7.18;5.18;;;;;;;;;;5110812;28;20184;-60
2023/07/27 12:00:54;;;;;;;6.53;5.00;;;;;;;;;;5108751;28;20039;-61
2023/07/27 12:03:21;;;;;;;6.97;4.80;;;;;;;;;;5111064;28;20027;-63
2023/07/27 12:05:46;;;;;;;5.35;4.25;;;;;;;;;;5113036;28;20054;-60
2023/07/27 12:08:19;;;;;;;6.10;4.88;;;;;;;;;;5107404;28;20480;-60
2023/07/27 12:10:56;;;;;;;6.43;5.22;;;;;;;;;;5111432;28;20035;-60
2023/07/27 12:13:22;;;;;;;6.28;4.63;;;;;;;;;;5110833;28;20032;-59
2023/07/27 12:15:56;;;;;;;6.30;5.00;;;;;;;;;;5112829;28;20019;-61
2023/07/27 12:18:27;;;;;;;6.53;4.60;;;;;;;;;;5111889;28;20036;-64
2023/07/27 12:20:54;;;;;;;6.18;5.15;;;;;;;;;;5110144;28;20062;-59
2023/07/27 12:23:20;;;;;;;5.57;4.47;;;;;;;;;;5112385;28;20506;-61
2023/07/27 12:25:45;;;;;;;4.57;3.67;;;;;;;;;;5112541;28;20102;-61
2023/07/27 12:28:10;;;;;;;3.95;3.30;;;;;;;;;;5111011;28;20107;-60
2023/07/27 12:30:36;;;;;;;5.20;3.60;;;;;;;;;;5111712;28;20051;-61
2023/07/27 12:33:02;;;;;;;5.03;3.70;;;;;;;;;;5110448;28;20064;-61
2023/07/27 12:35:28;;;;;;;5.28;4.15;;;;;;;;;;5111024;28;20063;-60
2023/07/27 12:37:55;;;;;;;5.90;4.00;;;;;;;;;;5112240;28;20035;-60
2023/07/27 12:40:21;;;;;;;4.70;3.65;;;;;;;;;;5111836;28;20034;-61
2023/07/27 12:42:46;;;;;;;5.63;4.18;;;;;;;;;;5110467;28;20028;-60
2023/07/27 12:45:12;;;;;;;6.03;4.63;;;;;;;;;;5110801;28;20036;-59
2023/07/27 12:47:38;;;;;;;5.70;4.70;;;;;;;;;;5111444;28;20077;-61
2023/07/27 12:50:04;;;;;;;5.50;4.53;;;;;;;;;;5112174;28;20032;-59
2023/07/27 12:52:32;;;;;;;3.80;3.10;;;;;;;;;;5111493;28;20035;-61
2023/07/27 12:54:57;;;;;;;4.35;3.38;;;;;;;;;;5112084;28;20036;-60
2023/07/27 12:57:23;;;;;;;6.60;3.42;;;;;;;;;;5111532;28;20091;-61
2023/07/27 12:59:48;;;;;;;5.60;4.05;;;;;;;;;;5099791;28;20024;-60
2023/07/27 13:02:14;;;;;;;7.38;5.45;;;;;;;;;;5112301;28;20031;-60
2023/07/27 13:04:39;;;;;;;7.70;5.50;;;;;;;;;;5111333;28;20039;-61
2023/07/27 13:07:07;;;;;;;7.07;5.82;;;;;;;;;;5112617;28;20035;-61
2023/07/27 13:09:32;;;;;;;9.55;6.07;;;;;;;;;;5110838;28;20039;-61
2023/07/27 13:11:58;;;;;;;10.02;6.47;;;;;;;;;;5111243;28;20034;-61
2023/07/27 13:14:23;;;;;;;9.00;6.40;;;;;;;;;;5103304;28;20104;-62
2023/07/27 13:16:48;;;;;;;9.32;6.60;;;;;;;;;;5115249;28;20027;-61
2023/07/27 13:19:14;;;;;;;9.10;6.43;;;;;;;;;;5115779;28;20039;-60
2023/07/27 13:21:42;;;;;;;6.20;4.97;;;;;;;;;;5114567;28;20071;-60
2023/07/27 13:24:07;;;;;;;6.95;5.57;;;;;;;;;;5115849;28;20106;-62
2023/07/27 13:26:33;;;;;;;5.57;4.15;;;;;;;;;;5113079;28;20115;-62
2023/07/27 13:28:59;;;;;;;5.10;3.40;;;;;;;;;;5115490;28;20051;-61
2023/07/27 13:31:24;;;;;;;7.90;4.10;;;;;;;;;;5115425;28;20036;-62
2023/07/27 13:33:50;;;;;;;5.50;4.10;;;;;;;;;;5115414;28;20029;-61
2023/07/27 13:36:15;;;;;;;6.30;3.88;;;;;;;;;;5114600;28;20039;-61
2023/07/27 13:38:41;;;;;;;5.68;3.70;;;;;;;;;;5114962;28;20058;-60
2023/07/27 13:41:06;;;;;;;5.47;3.95;;;;;;;;;;5114918;28;20084;-60
2023/07/27 13:43:33;;;;;;;4.70;4.03;;;;;;;;;;5114841;28;20031;-61
2023/07/27 13:45:59;;;;;;;3.90;3.10;;;;;;;;;;5115524;28;20036;-61
2023/07/27 13:48:25;;;;;;;4.38;3.15;;;;;;;;;;5114766;28;20027;-62
2023/07/27 13:50:50;;;;;;;4.75;3.40;;;;;;;;;;5113289;28;20453;-62
2023/07/27 13:53:16;;;;;;;5.55;4.10;;;;;;;;;;5115640;28;20391;-61
2023/07/27 13:55:41;;;;;;;6.32;4.90;;;;;;;;;;5114716;28;20038;-60
2023/07/27 13:58:07;;;;;;;7.75;5.55;;;;;;;;;;5114812;28;20024;-60
2023/07/27 14:00:33;;;;;;;6.97;6.05;;;;;;;;;;5114480;28;20039;-61
2023/07/27 14:02:58;;;;;;;8.32;6.90;;;;;;;;;;5113084;28;20024;-61
2023/07/27 14:05:24;;;;;;;7.72;6.63;;;;;;;;;;5103596;28;20387;-62
2023/07/27 14:07:49;;;;;;;7.07;5.95;;;;;;;;;;5113528;28;20031;-62
2023/07/27 14:10:17;;;;;;;7.95;6.55;;;;;;;;;;5114810;28;20059;-61
2023/07/27 14:12:42;;;;;;;7.85;6.63;;;;;;;;;;5114400;28;20031;-62
2023/07/27 14:15:08;;;;;;;8.10;6.38;;;;;;;;;;5114765;28;20023;-61
2023/07/27 14:17:36;;;;;;;5.80;4.95;;;;;;;;;;5112902;28;20472;-59
2023/07/27 14:20:02;;;;;;;7.07;5.72;;;;;;;;;;5112372;28;20035;-61
2023/07/27 14:22:27;;;;;;;5.20;3.45;;;;;;;;;;5112496;28;20035;-62
2023/07/27 14:24:52;;;;;;;6.35;4.65;;;;;;;;;;5114395;28;20031;-61
2023/07/27 14:27:18;;;;;;;6.07;4.57;;;;;;;;;;5113816;28;20106;-61
2023/07/27 14:29:43;;;;;;;6.65;5.13;;;;;;;;;;5113268;28;20051;-61
2023/07/27 14:32:10;;;;;;;6.72;5.40;;;;;;;;;;5114687;28;20375;-61
2023/07/27 14:34:35;;;;;;;7.50;5.32;;;;;;;;;;5095826;28;20032;-61
2023/07/27 14:37:00;;;;;;;7.13;5.10;;;;;;;;;;5094323;28;20473;-61
2023/07/27 14:39:27;;;;;;;6.50;5.50;;;;;;;;;;5103316;28;20055;-62
2023/07/27 14:41:53;;;;;;;8.35;6.05;;;;;;;;;;5116106;28;20095;-61